sensor_id;sensor_type;location;lat;lon;timestamp;pressure;altitude;pressure_sealevel;temperature;humidity
39773;BME280;25451;51.960;6.250;2023-05-21T00:01:35;101753.84;;;16.97;53.88
39773;BME280;25451;51.960;6.250;2023-05-21T00:04:00;101745.22;;;16.98;53.96
39773;BME280;25451;51.960;6.250;2023-05-21T00:06:25;101748.84;;;16.99;54.17
39773;BME280;25451;51.960;6.250;2023-05-21T00:08:51;101744.97;;;17.00;54.14
39773;BME280;25451;51.960;6.250;2023-05-21T00:11:16;101745.53;;;17.02;54.38
39773;BME280;25451;51.960;6.250;2023-05-21T00:13:42;101730.97;;;16.95;54.25
39773;BME280;25451;51.960;6.250;2023-05-21T00:16:07;101736.34;;;17.01;54.36
39773;BME280;25451;51.960;6.250;2023-05-21T00:18:35;101736.59;;;17.00;54.46
39773;BME280;25451;51.960;6.250;2023-05-21T00:21:00;101732.13;;;16.99;54.39
39773;BME280;25451;51.960;6.250;2023-05-21T00:23:25;101721.22;;;16.97;54.70
39773;BME280;25451;51.960;6.250;2023-05-21T00:25:51;101716.16;;;16.94;54.78
39773;BME280;25451;51.960;6.250;2023-05-21T00:28:17;101718.72;;;16.96;54.74
39773;BME280;25451;51.960;6.250;2023-05-21T00:30:42;101718.97;;;16.94;54.93
39773;BME280;25451;51.960;6.250;2023-05-21T00:33:07;101704.97;;;16.89;54.79
39773;BME280;25451;51.960;6.250;2023-05-21T00:35:34;101710.28;;;16.91;54.92
39773;BME280;25451;51.960;6.250;2023-05-21T00:38:00;101706.13;;;16.93;54.88
39773;BME280;25451;51.960;6.250;2023-05-21T00:40:25;101710.88;;;16.93;54.91
39773;BME280;25451;51.960;6.250;2023-05-21T00:42:52;101703.28;;;16.88;54.99
39773;BME280;25451;51.960;6.250;2023-05-21T00:45:21;101714.50;;;16.93;54.93
39773;BME280;25451;51.960;6.250;2023-05-21T00:47:48;101707.81;;;16.94;55.03
39773;BME280;25451;51.960;6.250;2023-05-21T00:50:14;101712.56;;;16.94;55.16
39773;BME280;25451;51.960;6.250;2023-05-21T00:52:39;101702.50;;;16.93;55.06
39773;BME280;25451;51.960;6.250;2023-05-21T00:55:07;101699.13;;;16.91;55.21
39773;BME280;25451;51.960;6.250;2023-05-21T00:57:34;101697.19;;;16.91;55.27
39773;BME280;25451;51.960;6.250;2023-05-21T01:00:02;101696.34;;;16.91;55.46
39773;BME280;25451;51.960;6.250;2023-05-21T01:02:28;101703.03;;;16.90;55.37
39773;BME280;25451;51.960;6.250;2023-05-21T01:04:57;101695.19;;;16.87;55.49
39773;BME280;25451;51.960;6.250;2023-05-21T01:07:24;101703.28;;;16.88;55.48
39773;BME280;25451;51.960;6.250;2023-05-21T01:09:49;101699.69;;;16.88;55.62
39773;BME280;25451;51.960;6.250;2023-05-21T01:12:15;101696.03;;;16.87;55.61
39773;BME280;25451;51.960;6.250;2023-05-21T01:14:42;101682.31;;;16.81;55.94
39773;BME280;25451;51.960;6.250;2023-05-21T01:17:08;101691.81;;;16.85;55.77
39773;BME280;25451;51.960;6.250;2023-05-21T01:19:34;101691.81;;;16.85;55.95
39773;BME280;25451;51.960;6.250;2023-05-21T01:22:04;101690.16;;;16.84;56.05
39773;BME280;25451;51.960;6.250;2023-05-21T01:24:29;101688.47;;;16.83;56.05
39773;BME280;25451;51.960;6.250;2023-05-21T01:26:55;101684.00;;;16.82;56.04
39773;BME280;25451;51.960;6.250;2023-05-21T01:29:22;101674.16;;;16.74;56.11
39773;BME280;25451;51.960;6.250;2023-05-21T01:34:33;101685.94;;;16.81;56.34
39773;BME280;25451;51.960;6.250;2023-05-21T01:37:19;101675.66;;;16.82;56.34
39773;BME280;25451;51.960;6.250;2023-05-21T01:39:51;101681.22;;;16.82;56.29
39773;BME280;25451;51.960;6.250;2023-05-21T01:42:21;101675.84;;;16.75;56.29
39773;BME280;25451;51.960;6.250;2023-05-21T01:44:50;101675.66;;;16.82;56.37
39773;BME280;25451;51.960;6.250;2023-05-21T01:47:16;101679.00;;;16.84;56.36
39773;BME280;25451;51.960;6.250;2023-05-21T01:49:42;101675.66;;;16.82;56.42
39773;BME280;25451;51.960;6.250;2023-05-21T01:52:08;101675.66;;;16.82;56.36
39773;BME280;25451;51.960;6.250;2023-05-21T01:54:33;101655.75;;;16.73;56.47
39773;BME280;25451;51.960;6.250;2023-05-21T01:56:59;101672.28;;;16.80;56.44
39773;BME280;25451;51.960;6.250;2023-05-21T01:59:25;101670.84;;;16.77;56.50
39773;BME280;25451;51.960;6.250;2023-05-21T02:01:51;101656.50;;;16.64;56.47
39773;BME280;25451;51.960;6.250;2023-05-21T02:04:17;101670.28;;;16.75;56.73
39773;BME280;25451;51.960;6.250;2023-05-21T02:06:42;101672.50;;;16.73;56.80
39773;BME280;25451;51.960;6.250;2023-05-21T02:09:08;101675.53;;;16.72;56.62
39773;BME280;25451;51.960;6.250;2023-05-21T02:11:33;101664.63;;;16.65;56.93
39773;BME280;25451;51.960;6.250;2023-05-21T02:13:59;101674.38;;;16.68;56.90
39773;BME280;25451;51.960;6.250;2023-05-21T02:16:24;101660.13;;;16.64;57.00
39773;BME280;25451;51.960;6.250;2023-05-21T02:18:50;101671.56;;;16.63;57.01
39773;BME280;25451;51.960;6.250;2023-05-21T02:21:17;101670.41;;;16.58;57.03
39773;BME280;25451;51.960;6.250;2023-05-21T02:23:44;101655.88;;;16.56;57.13
39773;BME280;25451;51.960;6.250;2023-05-21T02:26:10;101664.53;;;16.55;57.15
39773;BME280;25451;51.960;6.250;2023-05-21T02:28:35;101660.03;;;16.54;57.09
39773;BME280;25451;51.960;6.250;2023-05-21T02:31:00;101657.50;;;16.52;57.19
39773;BME280;25451;51.960;6.250;2023-05-21T02:33:25;101654.16;;;16.50;57.28
39773;BME280;25451;51.960;6.250;2023-05-21T02:35:51;101649.59;;;16.44;57.24
39773;BME280;25451;51.960;6.250;2023-05-21T02:38:16;101661.91;;;16.48;57.18
39773;BME280;25451;51.960;6.250;2023-05-21T02:40:44;101654.63;;;16.47;57.10
39773;BME280;25451;51.960;6.250;2023-05-21T02:43:10;101653.47;;;16.43;57.13
39773;BME280;25451;51.960;6.250;2023-05-21T02:45:35;101658.53;;;16.46;57.14
39773;BME280;25451;51.960;6.250;2023-05-21T02:48:00;101666.31;;;16.44;57.25
39773;BME280;25451;51.960;6.250;2023-05-21T02:50:26;101653.47;;;16.43;57.12
39773;BME280;25451;51.960;6.250;2023-05-21T02:52:51;101659.31;;;16.42;57.19
39773;BME280;25451;51.960;6.250;2023-05-21T02:55:16;101664.03;;;16.41;57.23
39773;BME280;25451;51.960;6.250;2023-05-21T02:57:42;101656.22;;;16.38;57.50
39773;BME280;25451;51.960;6.250;2023-05-21T03:00:07;101653.13;;;16.35;57.36
39773;BME280;25451;51.960;6.250;2023-05-21T03:02:34;101664.53;;;16.33;57.39
39773;BME280;25451;51.960;6.250;2023-05-21T03:05:00;101648.91;;;16.32;57.35
39773;BME280;25451;51.960;6.250;2023-05-21T03:07:25;101651.13;;;16.30;57.30
39773;BME280;25451;51.960;6.250;2023-05-21T03:09:50;101639.88;;;16.20;57.44
39773;BME280;25451;51.960;6.250;2023-05-21T03:12:16;101639.91;;;16.25;57.42
39773;BME280;25451;51.960;6.250;2023-05-21T03:14:41;101646.59;;;16.24;57.42
39773;BME280;25451;51.960;6.250;2023-05-21T03:17:08;101647.13;;;16.21;57.43
39773;BME280;25451;51.960;6.250;2023-05-21T03:19:39;101638.19;;;16.19;57.51
39773;BME280;25451;51.960;6.250;2023-05-21T03:22:05;101635.66;;;16.18;57.42
39773;BME280;25451;51.960;6.250;2023-05-21T03:24:30;101644.28;;;16.16;57.64
39773;BME280;25451;51.960;6.250;2023-05-21T03:26:57;101631.44;;;16.15;57.55
39773;BME280;25451;51.960;6.250;2023-05-21T03:29:23;101637.28;;;16.14;57.67
39773;BME280;25451;51.960;6.250;2023-05-21T03:31:48;101638.66;;;16.11;57.64
39773;BME280;25451;51.960;6.250;2023-05-21T03:34:15;101636.63;;;16.07;57.74
39773;BME280;25451;51.960;6.250;2023-05-21T03:36:41;101635.56;;;16.08;57.72
39773;BME280;25451;51.960;6.250;2023-05-21T03:39:06;101641.41;;;16.06;57.61
39773;BME280;25451;51.960;6.250;2023-05-21T03:41:31;101627.09;;;15.98;57.88
39773;BME280;25451;51.960;6.250;2023-05-21T03:43:57;101643.03;;;16.02;57.91
39773;BME280;25451;51.960;6.250;2023-05-21T03:46:22;101637.97;;;15.99;57.91
39773;BME280;25451;51.960;6.250;2023-05-21T03:48:48;101640.75;;;15.99;58.04
39773;BME280;25451;51.960;6.250;2023-05-21T03:51:13;101629.28;;;15.96;58.11
39773;BME280;25451;51.960;6.250;2023-05-21T03:53:40;101627.88;;;15.93;58.20
39773;BME280;25451;51.960;6.250;2023-05-21T03:56:05;101630.06;;;15.91;58.12
39773;BME280;25451;51.960;6.250;2023-05-21T03:58:30;101631.19;;;15.90;58.26
39773;BME280;25451;51.960;6.250;2023-05-21T04:00:56;101628.91;;;15.87;58.41
39773;BME280;25451;51.960;6.250;2023-05-21T04:03:22;101630.00;;;15.86;58.37
39773;BME280;25451;51.960;6.250;2023-05-21T04:05:47;101621.31;;;15.83;58.50
39773;BME280;25451;51.960;6.250;2023-05-21T04:08:13;101617.56;;;15.72;58.51
39773;BME280;25451;51.960;6.250;2023-05-21T04:10:38;101638.81;;;15.78;58.65
39773;BME280;25451;51.960;6.250;2023-05-21T04:13:04;101641.28;;;15.74;58.77
39773;BME280;25451;51.960;6.250;2023-05-21T04:15:29;101648.19;;;15.72;58.96
39773;BME280;25451;51.960;6.250;2023-05-21T04:17:54;101656.53;;;15.72;58.93
39773;BME280;25451;51.960;6.250;2023-05-21T04:20:21;101646.53;;;15.71;59.01
39773;BME280;25451;51.960;6.250;2023-05-21T04:22:46;101639.47;;;15.63;59.07
39773;BME280;25451;51.960;6.250;2023-05-21T04:25:11;101658.16;;;15.68;59.06
39773;BME280;25451;51.960;6.250;2023-05-21T04:27:37;101655.91;;;15.65;59.27
39773;BME280;25451;51.960;6.250;2023-05-21T04:30:03;101654.47;;;15.62;59.28
39773;BME280;25451;51.960;6.250;2023-05-21T04:32:29;101661.47;;;15.65;59.24
39773;BME280;25451;51.960;6.250;2023-05-21T04:34:55;101652.81;;;15.61;59.47
39773;BME280;25451;51.960;6.250;2023-05-21T04:37:21;101651.97;;;15.61;59.50
39773;BME280;25451;51.960;6.250;2023-05-21T04:39:48;101652.47;;;15.58;59.68
39773;BME280;25451;51.960;6.250;2023-05-21T04:42:14;101659.13;;;15.57;59.75
39773;BME280;25451;51.960;6.250;2023-05-21T04:44:39;101665.56;;;15.57;59.57
39773;BME280;25451;51.960;6.250;2023-05-21T04:47:04;101654.41;;;15.57;59.99
39773;BME280;25451;51.960;6.250;2023-05-21T04:49:30;101656.34;;;15.57;60.10
39773;BME280;25451;51.960;6.250;2023-05-21T04:51:55;101658.56;;;15.55;60.17
39773;BME280;25451;51.960;6.250;2023-05-21T04:54:21;101650.69;;;15.52;60.22
39773;BME280;25451;51.960;6.250;2023-05-21T04:56:46;101638.41;;;15.48;60.20
39773;BME280;25451;51.960;6.250;2023-05-21T04:59:12;101638.41;;;15.48;60.42
39773;BME280;25451;51.960;6.250;2023-05-21T05:01:37;101650.97;;;15.50;60.49
39773;BME280;25451;51.960;6.250;2023-05-21T05:04:04;101648.72;;;15.47;60.61
39773;BME280;25451;51.960;6.250;2023-05-21T05:06:29;101641.72;;;15.45;60.83
39773;BME280;25451;51.960;6.250;2023-05-21T05:08:55;101648.94;;;15.46;60.63
39773;BME280;25451;51.960;6.250;2023-05-21T05:11:20;101651.72;;;15.46;61.09
39773;BME280;25451;51.960;6.250;2023-05-21T05:13:46;101640.03;;;15.44;61.21
39773;BME280;25451;51.960;6.250;2023-05-21T05:16:11;101645.34;;;15.45;61.23
39773;BME280;25451;51.960;6.250;2023-05-21T05:18:38;101646.75;;;15.48;61.29
39773;BME280;25451;51.960;6.250;2023-05-21T05:21:03;101633.53;;;15.38;61.16
39773;BME280;25451;51.960;6.250;2023-05-21T05:23:29;101640.09;;;15.49;61.20
39773;BME280;25451;51.960;6.250;2023-05-21T05:25:54;101643.47;;;15.51;61.45
39773;BME280;25451;51.960;6.250;2023-05-21T05:28:20;101637.31;;;15.49;61.49
39773;BME280;25451;51.960;6.250;2023-05-21T05:30:45;101635.63;;;15.48;61.56
39773;BME280;25451;51.960;6.250;2023-05-21T05:33:10;101642.88;;;15.49;61.72
39773;BME280;25451;51.960;6.250;2023-05-21T05:35:36;101643.97;;;15.48;61.88
39773;BME280;25451;51.960;6.250;2023-05-21T05:38:01;101641.19;;;15.48;61.94
39773;BME280;25451;51.960;6.250;2023-05-21T05:40:26;101621.66;;;15.43;61.97
39773;BME280;25451;51.960;6.250;2023-05-21T05:42:52;101619.06;;;15.41;61.97
39773;BME280;25451;51.960;6.250;2023-05-21T05:45:18;101651.28;;;15.54;61.98
39773;BME280;25451;51.960;6.250;2023-05-21T05:47:43;101640.50;;;15.57;62.12
39773;BME280;25451;51.960;6.250;2023-05-21T05:50:09;101621.78;;;15.53;62.08
39773;BME280;25451;51.960;6.250;2023-05-21T05:52:35;101636.94;;;15.62;62.17
39773;BME280;25451;51.960;6.250;2023-05-21T05:55:00;101627.19;;;15.59;62.28
39773;BME280;25451;51.960;6.250;2023-05-21T05:57:26;101640.88;;;15.66;62.02
39773;BME280;25451;51.960;6.250;2023-05-21T05:59:51;101637.59;;;15.69;62.12
39773;BME280;25451;51.960;6.250;2023-05-21T06:02:16;101620.22;;;15.62;62.23
39773;BME280;25451;51.960;6.250;2023-05-21T06:04:42;101633.19;;;15.73;62.23
39773;BME280;25451;51.960;6.250;2023-05-21T06:07:07;101620.56;;;15.65;62.28
39773;BME280;25451;51.960;6.250;2023-05-21T06:09:32;101629.88;;;15.76;62.47
39773;BME280;25451;51.960;6.250;2023-05-21T06:11:58;101636.59;;;15.80;62.30
39773;BME280;25451;51.960;6.250;2023-05-21T06:14:23;101640.53;;;15.84;62.37
39773;BME280;25451;51.960;6.250;2023-05-21T06:16:48;101633.63;;;15.87;62.38
39773;BME280;25451;51.960;6.250;2023-05-21T06:19:14;101633.34;;;15.88;62.40
39773;BME280;25451;51.960;6.250;2023-05-21T06:21:39;101639.53;;;15.90;62.46
39773;BME280;25451;51.960;6.250;2023-05-21T06:24:05;101637.34;;;15.92;62.43
39773;BME280;25451;51.960;6.250;2023-05-21T06:26:30;101633.44;;;15.93;62.44
39773;BME280;25451;51.960;6.250;2023-05-21T06:28:55;101631.22;;;15.95;62.43
39773;BME280;25451;51.960;6.250;2023-05-21T06:31:21;101637.97;;;15.99;62.59
39773;BME280;25451;51.960;6.250;2023-05-21T06:33:47;101640.25;;;16.02;62.77
39773;BME280;25451;51.960;6.250;2023-05-21T06:36:13;101648.06;;;16.05;62.77
39773;BME280;25451;51.960;6.250;2023-05-21T06:38:39;101654.78;;;16.09;62.75
39773;BME280;25451;51.960;6.250;2023-05-21T06:41:05;101638.38;;;16.13;62.66
39773;BME280;25451;51.960;6.250;2023-05-21T06:43:30;101637.59;;;16.17;62.70
39773;BME280;25451;51.960;6.250;2023-05-21T06:45:55;101644.06;;;16.23;62.72
39773;BME280;25451;51.960;6.250;2023-05-21T06:48:20;101637.44;;;16.29;62.72
39773;BME280;25451;51.960;6.250;2023-05-21T06:50:46;101644.19;;;16.33;62.52
39773;BME280;25451;51.960;6.250;2023-05-21T06:53:11;101638.94;;;16.36;62.61
39773;BME280;25451;51.960;6.250;2023-05-21T06:55:40;101623.06;;;16.37;62.56
39773;BME280;25451;51.960;6.250;2023-05-21T06:58:09;101625.09;;;16.46;62.71
39773;BME280;25451;51.960;6.250;2023-05-21T07:00:34;101634.38;;;16.52;62.52
39773;BME280;25451;51.960;6.250;2023-05-21T07:02:59;101625.50;;;16.55;62.49
39773;BME280;25451;51.960;6.250;2023-05-21T07:05:25;101635.31;;;16.63;62.39
39773;BME280;25451;51.960;6.250;2023-05-21T07:07:50;101645.13;;;16.70;62.50
39773;BME280;25451;51.960;6.250;2023-05-21T07:10:15;101639.63;;;16.75;62.39
39773;BME280;25451;51.960;6.250;2023-05-21T07:12:41;101629.34;;;16.81;62.34
39773;BME280;25451;51.960;6.250;2023-05-21T07:15:06;101629.38;;;16.86;62.43
39773;BME280;25451;51.960;6.250;2023-05-21T07:17:32;101626.91;;;16.89;62.36
39773;BME280;25451;51.960;6.250;2023-05-21T07:19:58;101613.81;;;16.95;62.32
39773;BME280;25451;51.960;6.250;2023-05-21T07:22:23;101610.81;;;17.01;62.19
39773;BME280;25451;51.960;6.250;2023-05-21T07:24:48;101611.69;;;17.07;62.25
39773;BME280;25451;51.960;6.250;2023-05-21T07:27:14;101601.66;;;17.11;62.10
39773;BME280;25451;51.960;6.250;2023-05-21T07:29:39;101608.09;;;17.16;62.23
39773;BME280;25451;51.960;6.250;2023-05-21T07:32:04;101608.44;;;17.25;62.00
39773;BME280;25451;51.960;6.250;2023-05-21T07:34:30;101620.22;;;17.32;61.92
39773;BME280;25451;51.960;6.250;2023-05-21T07:36:55;101609.63;;;17.34;61.89
39773;BME280;25451;51.960;6.250;2023-05-21T07:39:20;101609.97;;;17.42;61.98
39773;BME280;25451;51.960;6.250;2023-05-21T07:41:46;101616.72;;;17.52;62.00
39773;BME280;25451;51.960;6.250;2023-05-21T07:44:11;101617.91;;;17.61;61.55
39773;BME280;25451;51.960;6.250;2023-05-21T07:46:36;101604.25;;;17.69;61.62
39773;BME280;25451;51.960;6.250;2023-05-21T07:49:01;101613.50;;;17.80;61.44
39773;BME280;25451;51.960;6.250;2023-05-21T07:51:27;101613.56;;;17.95;61.37
39773;BME280;25451;51.960;6.250;2023-05-21T07:53:52;101600.47;;;18.05;61.05
39773;BME280;25451;51.960;6.250;2023-05-21T07:56:18;101607.75;;;18.16;61.17
39773;BME280;25451;51.960;6.250;2023-05-21T07:58:43;101610.84;;;18.25;60.85
39773;BME280;25451;51.960;6.250;2023-05-21T08:01:10;101604.44;;;18.30;60.79
39773;BME280;25451;51.960;6.250;2023-05-21T08:03:36;101604.16;;;18.36;60.78
39773;BME280;25451;51.960;6.250;2023-05-21T08:06:01;101594.34;;;18.39;60.64
39773;BME280;25451;51.960;6.250;2023-05-21T08:08:26;101597.22;;;18.49;60.74
39773;BME280;25451;51.960;6.250;2023-05-21T08:10:52;101596.38;;;18.58;60.57
39773;BME280;25451;51.960;6.250;2023-05-21T08:13:17;101597.78;;;18.66;60.37
39773;BME280;25451;51.960;6.250;2023-05-21T08:15:42;101593.84;;;18.72;60.36
39773;BME280;25451;51.960;6.250;2023-05-21T08:18:08;101594.69;;;18.82;60.36
39773;BME280;25451;51.960;6.250;2023-05-21T08:20:33;101594.69;;;18.87;60.02
39773;BME280;25451;51.960;6.250;2023-05-21T08:22:59;101576.78;;;18.88;60.11
39773;BME280;25451;51.960;6.250;2023-05-21T08:25:25;101600.25;;;19.18;59.95
39773;BME280;25451;51.960;6.250;2023-05-21T08:27:51;101602.75;;;19.29;59.73
39773;BME280;25451;51.960;6.250;2023-05-21T08:30:16;101603.28;;;19.41;59.44
39773;BME280;25451;51.960;6.250;2023-05-21T08:32:41;101596.56;;;19.52;59.38
39773;BME280;25451;51.960;6.250;2023-05-21T08:35:07;101604.06;;;19.62;59.19
39773;BME280;25451;51.960;6.250;2023-05-21T08:37:33;101611.03;;;19.69;58.88
39773;BME280;25451;51.960;6.250;2023-05-21T08:39:58;101597.28;;;19.73;58.80
39773;BME280;25451;51.960;6.250;2023-05-21T08:45:03;101592.47;;;19.83;58.80
39773;BME280;25451;51.960;6.250;2023-05-21T08:47:31;101601.97;;;19.93;58.57
39773;BME280;25451;51.960;6.250;2023-05-21T08:49:59;101578.72;;;19.92;58.56
39773;BME280;25451;51.960;6.250;2023-05-21T08:52:24;101595.16;;;20.09;58.43
39773;BME280;25451;51.960;6.250;2023-05-21T08:54:51;101592.88;;;20.21;58.29
39773;BME280;25451;51.960;6.250;2023-05-21T08:57:17;101596.69;;;20.35;58.02
39773;BME280;25451;51.960;6.250;2023-05-21T08:59:44;101591.00;;;20.50;57.67
39773;BME280;25451;51.960;6.250;2023-05-21T09:02:13;101597.91;;;20.62;57.53
39773;BME280;25451;51.960;6.250;2023-05-21T09:04:40;101591.66;;;20.71;57.40
39773;BME280;25451;51.960;6.250;2023-05-21T09:07:09;101600.25;;;20.84;57.25
39773;BME280;25451;51.960;6.250;2023-05-21T09:10:01;101597.91;;;20.91;56.96
39773;BME280;25451;51.960;6.250;2023-05-21T09:12:27;101595.66;;;20.93;56.89
39773;BME280;25451;51.960;6.250;2023-05-21T09:14:53;101582.47;;;20.94;56.85
39773;BME280;25451;51.960;6.250;2023-05-21T09:17:19;101590.22;;;21.07;56.62
39773;BME280;25451;51.960;6.250;2023-05-21T09:22:32;101580.81;;;21.21;56.31
39773;BME280;25451;51.960;6.250;2023-05-21T09:24:57;101593.13;;;21.25;56.12
39773;BME280;25451;51.960;6.250;2023-05-21T09:27:23;101584.16;;;21.23;56.16
39773;BME280;25451;51.960;6.250;2023-05-21T09:29:48;101578.28;;;21.20;56.15
39773;BME280;25451;51.960;6.250;2023-05-21T09:32:13;101588.31;;;21.26;56.04
39773;BME280;25451;51.960;6.250;2023-05-21T09:34:40;101587.44;;;21.30;55.98
39773;BME280;25451;51.960;6.250;2023-05-21T09:37:05;101586.25;;;21.36;55.81
39773;BME280;25451;51.960;6.250;2023-05-21T09:39:31;101586.78;;;21.38;55.80
39773;BME280;25451;51.960;6.250;2023-05-21T09:41:57;101568.00;;;21.34;55.71
39773;BME280;25451;51.960;6.250;2023-05-21T09:44:22;101575.38;;;21.30;55.71
39773;BME280;25451;51.960;6.250;2023-05-21T09:46:48;101585.59;;;21.44;55.68
39773;BME280;25451;51.960;6.250;2023-05-21T09:49:23;101581.31;;;21.52;55.55
39773;BME280;25451;51.960;6.250;2023-05-21T09:51:54;101586.28;;;21.60;55.35
39773;BME280;25451;51.960;6.250;2023-05-21T09:54:20;101575.78;;;21.66;55.03
39773;BME280;25451;51.960;6.250;2023-05-21T09:56:45;101573.53;;;21.68;55.19
39773;BME280;25451;51.960;6.250;2023-05-21T09:59:10;101573.44;;;21.73;55.04
39773;BME280;25451;51.960;6.250;2023-05-21T10:01:36;101572.75;;;21.81;54.99
39773;BME280;25451;51.960;6.250;2023-05-21T10:04:06;101567.66;;;21.88;54.81
39773;BME280;25451;51.960;6.250;2023-05-21T10:06:34;101564.00;;;21.87;54.70
39773;BME280;25451;51.960;6.250;2023-05-21T10:09:05;101563.78;;;21.84;54.91
39773;BME280;25451;51.960;6.250;2023-05-21T10:11:34;101555.56;;;21.87;54.89
39773;BME280;25451;51.960;6.250;2023-05-21T10:14:04;101559.16;;;21.93;54.76
39773;BME280;25451;51.960;6.250;2023-05-21T10:16:32;101565.31;;;21.95;54.76
39773;BME280;25451;51.960;6.250;2023-05-21T10:18:57;101554.84;;;22.00;54.50
39773;BME280;25451;51.960;6.250;2023-05-21T10:21:23;101543.50;;;22.05;54.61
39773;BME280;25451;51.960;6.250;2023-05-21T10:23:50;101545.41;;;22.10;54.45
39773;BME280;25451;51.960;6.250;2023-05-21T10:26:17;101559.63;;;22.18;54.44
39773;BME280;25451;51.960;6.250;2023-05-21T10:28:43;101553.69;;;22.20;54.54
39773;BME280;25451;51.960;6.250;2023-05-21T10:31:10;101558.03;;;22.31;54.19
39773;BME280;25451;51.960;6.250;2023-05-21T10:33:37;101540.22;;;22.36;54.26
39773;BME280;25451;51.960;6.250;2023-05-21T10:36:03;101548.19;;;22.47;54.24
39773;BME280;25451;51.960;6.250;2023-05-21T10:38:31;101541.94;;;22.50;53.97
39773;BME280;25451;51.960;6.250;2023-05-21T10:40:57;101549.25;;;22.51;53.81
39773;BME280;25451;51.960;6.250;2023-05-21T10:46:15;101539.50;;;22.62;53.76
39773;BME280;25451;51.960;6.250;2023-05-21T10:49:10;101538.91;;;22.65;53.69
39773;BME280;25451;51.960;6.250;2023-05-21T10:51:52;101530.47;;;22.65;53.76
39773;BME280;25451;51.960;6.250;2023-05-21T10:54:53;101541.94;;;22.69;53.42
39773;BME280;25451;51.960;6.250;2023-05-21T11:00:04;101516.84;;;22.54;53.73
39773;BME280;25451;51.960;6.250;2023-05-21T11:02:32;101533.59;;;22.64;53.72
39773;BME280;25451;51.960;6.250;2023-05-21T11:04:58;101529.31;;;22.66;53.83
39773;BME280;25451;51.960;6.250;2023-05-21T11:07:55;101528.38;;;22.71;53.42
39773;BME280;25451;51.960;6.250;2023-05-21T11:10:37;101535.38;;;22.73;53.49
39773;BME280;25451;51.960;6.250;2023-05-21T11:13:14;101528.59;;;22.74;53.60
39773;BME280;25451;51.960;6.250;2023-05-21T11:21:16;101515.59;;;22.78;53.47
39773;BME280;25451;51.960;6.250;2023-05-21T11:23:54;101529.78;;;22.87;53.60
39773;BME280;25451;51.960;6.250;2023-05-21T11:26:22;101528.72;;;22.83;53.18
39773;BME280;25451;51.960;6.250;2023-05-21T11:31:28;101514.16;;;22.94;53.27
39773;BME280;25451;51.960;6.250;2023-05-21T11:36:43;101518.66;;;23.09;53.33
39773;BME280;25451;51.960;6.250;2023-05-21T11:41:51;101505.13;;;23.25;52.74
39773;BME280;25451;51.960;6.250;2023-05-21T11:44:18;101506.16;;;23.29;52.96
39773;BME280;25451;51.960;6.250;2023-05-21T11:46:47;101504.63;;;23.36;52.70
39773;BME280;25451;51.960;6.250;2023-05-21T11:49:14;101501.72;;;23.41;52.67
39773;BME280;25451;51.960;6.250;2023-05-21T11:51:39;101498.56;;;23.43;52.56
39773;BME280;25451;51.960;6.250;2023-05-21T11:54:07;101493.31;;;23.50;52.71
39773;BME280;25451;51.960;6.250;2023-05-21T11:56:35;101486.84;;;23.63;52.66
39773;BME280;25451;51.960;6.250;2023-05-21T11:59:01;101486.81;;;23.76;52.17
39773;BME280;25451;51.960;6.250;2023-05-21T12:01:26;101487.41;;;23.87;52.33
39773;BME280;25451;51.960;6.250;2023-05-21T12:03:52;101491.78;;;23.93;51.82
39773;BME280;25451;51.960;6.250;2023-05-21T12:06:17;101497.94;;;23.95;52.11
39773;BME280;25451;51.960;6.250;2023-05-21T12:08:50;101501.59;;;23.96;51.78
39773;BME280;25451;51.960;6.250;2023-05-21T12:11:16;101484.50;;;23.92;52.09
39773;BME280;25451;51.960;6.250;2023-05-21T12:13:41;101493.66;;;23.98;52.03
39773;BME280;25451;51.960;6.250;2023-05-21T12:16:07;101488.75;;;24.03;52.00
39773;BME280;25451;51.960;6.250;2023-05-21T12:18:33;101492.19;;;24.00;51.90
39773;BME280;25451;51.960;6.250;2023-05-21T12:21:00;101483.22;;;23.98;51.83
39773;BME280;25451;51.960;6.250;2023-05-21T12:23:25;101495.22;;;24.04;51.61
39773;BME280;25451;51.960;6.250;2023-05-21T12:25:51;101487.63;;;24.04;51.61
39773;BME280;25451;51.960;6.250;2023-05-21T12:28:19;101483.63;;;24.05;51.51
39773;BME280;25451;51.960;6.250;2023-05-21T12:30:45;101478.19;;;24.09;51.68
39773;BME280;25451;51.960;6.250;2023-05-21T12:33:10;101475.28;;;24.00;51.67
39773;BME280;25451;51.960;6.250;2023-05-21T12:35:36;101463.78;;;23.97;51.52
39773;BME280;25451;51.960;6.250;2023-05-21T12:38:01;101482.34;;;24.11;51.86
39773;BME280;25451;51.960;6.250;2023-05-21T12:40:35;101461.97;;;24.01;51.65
39773;BME280;25451;51.960;6.250;2023-05-21T12:43:04;101464.09;;;23.95;51.61
39773;BME280;25451;51.960;6.250;2023-05-21T12:45:31;101476.06;;;24.01;51.71
39773;BME280;25451;51.960;6.250;2023-05-21T12:48:00;101468.72;;;23.91;51.80
39773;BME280;25451;51.960;6.250;2023-05-21T12:50:25;101453.06;;;23.85;51.70
39773;BME280;25451;51.960;6.250;2023-05-21T12:52:54;101467.56;;;23.92;51.70
39773;BME280;25451;51.960;6.250;2023-05-21T12:55:23;101463.59;;;23.93;51.64
39773;BME280;25451;51.960;6.250;2023-05-21T12:58:02;101445.44;;;23.85;51.49
39773;BME280;25451;51.960;6.250;2023-05-21T13:00:32;101459.91;;;23.92;51.70
39773;BME280;25451;51.960;6.250;2023-05-21T13:02:58;101463.91;;;23.92;51.57
39773;BME280;25451;51.960;6.250;2023-05-21T13:05:25;101445.63;;;23.89;51.68
39773;BME280;25451;51.960;6.250;2023-05-21T13:07:50;101459.41;;;23.90;51.75
39773;BME280;25451;51.960;6.250;2023-05-21T13:10:16;101442.94;;;23.84;51.74
39773;BME280;25451;51.960;6.250;2023-05-21T13:12:41;101443.84;;;23.93;51.86
39773;BME280;25451;51.960;6.250;2023-05-21T13:15:07;101427.34;;;23.86;51.48